Time;durP1;ratioP1;P1;durP2;ratioP2;P2;SDS_P1;SDS_P2;PMS_P1;PMS_P2;Temp;Humidity;BMP_temperature;BMP_pressure;BME280_temperature;BME280_humidity;BME280_pressure;Samples;Min_cycle;Max_cycle;Signal;HPM_P1;HPM_P2
2022/08/17 00:00:39;;;;;;;563.75;142.43;;;;;;;23.24;71.43;100742.97;4945029;28;122315;-77
2022/08/17 00:03:09;;;;;;;499.73;135.02;;;;;;;23.24;71.00;100748.56;4941717;28;121946;-78
2022/08/17 00:05:40;;;;;;;439.50;126.82;;;;;;;23.22;70.65;100746.31;4942145;28;122909;-77
2022/08/17 00:08:07;;;;;;;427.48;125.53;;;;;;;23.18;70.69;100751.44;4938811;28;122287;-77
2022/08/17 00:10:33;;;;;;;410.10;121.88;;;;;;;23.13;70.10;100743.91;4938791;28;122814;-77
2022/08/17 00:13:03;;;;;;;400.23;123.13;;;;;;;23.10;70.89;100733.78;4925362;28;122760;-77
2022/08/17 00:15:29;;;;;;;434.43;125.00;;;;;;;23.11;70.69;100740.91;4943279;28;122959;-77
2022/08/17 00:17:54;;;;;;;447.80;128.97;;;;;;;23.10;70.83;100745.00;4941485;28;122710;-78
2022/08/17 00:20:20;;;;;;;453.50;128.73;;;;;;;23.05;70.92;100731.84;4959928;28;122042;-77
2022/08/17 00:22:46;;;;;;;472.27;129.35;;;;;;;23.01;70.24;100734.22;4940574;28;122748;-77
2022/08/17 00:25:15;;;;;;;502.50;134.25;;;;;;;23.03;70.78;100739.28;4940822;28;124605;-77
2022/08/17 00:27:41;;;;;;;516.78;141.15;;;;;;;23.06;70.71;100755.75;4920787;28;123185;-77
2022/08/17 00:30:09;;;;;;;566.57;145.13;;;;;;;23.04;70.71;100751.97;4919765;28;124811;-77
2022/08/17 00:32:41;;;;;;;551.20;141.75;;;;;;;22.95;70.30;100747.56;4936766;28;122529;-77
2022/08/17 00:35:08;;;;;;;554.33;142.75;;;;;;;22.94;70.31;100760.00;4936528;28;122854;-77
2022/08/17 00:37:34;;;;;;;533.70;140.55;;;;;;;22.84;71.02;100756.13;4924533;28;122646;-77
2022/08/17 00:40:00;;;;;;;528.77;140.57;;;;;;;22.85;70.70;100766.78;4925949;28;122521;-77
2022/08/17 00:42:26;;;;;;;479.23;137.63;;;;;;;22.74;70.36;100752.97;4945106;28;122384;-77
2022/08/17 00:44:52;;;;;;;517.35;141.52;;;;;;;22.80;70.44;100762.03;4938543;28;124406;-77
2022/08/17 00:47:18;;;;;;;520.53;142.70;;;;;;;22.72;70.39;100754.81;4952391;28;122362;-77
2022/08/17 00:49:43;;;;;;;518.70;142.55;;;;;;;22.72;70.69;100754.81;4939377;28;123084;-77
2022/08/17 00:52:15;;;;;;;526.27;144.47;;;;;;;22.68;70.26;100757.88;4939628;28;123888;-77
2022/08/17 00:54:45;;;;;;;577.33;148.50;;;;;;;22.64;71.25;100763.03;4939260;28;122790;-79
2022/08/17 00:57:23;;;;;;;565.75;147.02;;;;;;;22.63;70.75;100764.31;4925114;28;122134;-77
2022/08/17 00:59:57;;;;;;;634.72;156.90;;;;;;;22.51;71.14;100747.00;4927827;28;125045;-77
2022/08/17 01:02:23;;;;;;;693.88;161.75;;;;;;;22.57;71.25;100756.03;4934351;28;122571;-77
2022/08/17 01:04:51;;;;;;;721.78;165.35;;;;;;;22.57;71.31;100756.03;4936973;28;123028;-77
2022/08/17 01:07:18;;;;;;;656.42;160.75;;;;;;;22.55;71.15;100758.63;4939520;28;122486;-77
2022/08/17 01:09:44;;;;;;;705.42;159.15;;;;;;;22.59;71.65;100753.47;4923221;28;123486;-77
2022/08/17 01:12:11;;;;;;;704.80;168.73;;;;;;;22.62;72.13;100757.97;4939301;28;122071;-77
2022/08/17 01:14:38;;;;;;;687.47;166.07;;;;;;;22.58;72.01;100751.19;4936158;28;122557;-77
2022/08/17 01:17:05;;;;;;;701.35;166.80;;;;;;;22.61;72.13;100759.28;4940379;28;123771;-77
2022/08/17 01:19:37;;;;;;;822.47;182.10;;;;;;;22.56;72.31;100754.53;4937550;28;122491;-77
2022/08/17 01:22:06;;;;;;;756.28;174.50;;;;;;;22.67;71.99;100768.31;4936072;28;122544;-77
2022/08/17 01:24:33;;;;;;;718.47;177.15;;;;;;;22.64;72.32;100751.84;4939818;28;121760;-77
2022/08/17 01:27:00;;;;;;;711.05;171.70;;;;;;;22.65;71.42;100748.53;4939274;28;122146;-77
2022/08/17 01:29:29;;;;;;;709.22;175.70;;;;;;;22.71;72.11;100758.84;4908404;28;122727;-77
2022/08/17 01:31:58;;;;;;;749.30;178.07;;;;;;;22.70;71.81;100768.53;4938232;28;122434;-77
2022/08/17 01:34:25;;;;;;;796.95;181.27;;;;;;;22.69;71.31;100764.97;4932014;28;122799;-77
2022/08/17 01:36:51;;;;;;;910.90;191.67;;;;;;;22.62;71.21;100757.97;4934741;28;123178;-78
2022/08/17 01:39:22;;;;;;;856.05;185.63;;;;;;;22.68;71.19;100766.28;4925825;28;122739;-77
2022/08/17 01:41:55;;;;;;;921.78;199.95;;;;;;;22.66;71.48;100761.22;4937830;28;122940;-77
2022/08/17 01:44:22;;;;;;;952.55;208.90;;;;;;;22.61;71.44;100762.06;4941833;28;122962;-78
2022/08/17 01:46:51;;;;;;;879.42;196.43;;;;;;;22.66;72.14;100772.41;4926117;28;122349;-77
2022/08/17 01:49:18;;;;;;;911.60;204.30;;;;;;;22.63;71.66;100767.88;4947351;28;123604;-77
2022/08/17 01:51:44;;;;;;;865.55;192.23;;;;;;;22.54;71.75;100762.69;4927128;28;122242;-77
2022/08/17 01:54:16;;;;;;;879.88;196.82;;;;;;;22.55;71.57;100763.44;4941711;28;122740;-78
2022/08/17 01:56:45;;;;;;;861.78;190.90;;;;;;;22.58;71.54;100771.53;4944608;28;122301;-77
2022/08/17 01:59:12;;;;;;;822.13;191.82;;;;;;;22.54;71.32;100773.88;4940628;28;122637;-77
2022/08/17 02:01:38;;;;;;;697.50;176.13;;;;;;;22.48;71.38;100776.00;4941397;28;122223;-77
2022/08/17 02:04:05;;;;;;;827.50;192.30;;;;;;;22.42;71.24;100777.34;4942076;28;123458;-77
2022/08/17 02:06:34;;;;;;;885.35;194.50;;;;;;;22.21;71.09;100758.34;4936618;28;122462;-77
2022/08/17 02:09:01;;;;;;;880.47;194.20;;;;;;;22.36;71.64;100781.00;4925623;28;122914;-77
2022/08/17 02:11:26;;;;;;;873.42;193.50;;;;;;;22.34;71.71;100775.19;4946426;28;124195;-77
2022/08/17 02:13:52;;;;;;;753.10;176.52;;;;;;;22.42;72.07;100794.88;4944445;28;122068;-77
2022/08/17 02:16:18;;;;;;;876.92;185.38;;;;;;;22.39;72.09;100781.22;4939869;28;122564;-77
2022/08/17 02:18:45;;;;;;;841.40;188.85;;;;;;;22.41;72.07;100793.38;4908336;28;122039;-77
2022/08/17 02:21:12;;;;;;;726.97;177.38;;;;;;;22.41;71.97;100785.00;4944765;28;122001;-77
2022/08/17 02:23:42;;;;;;;674.95;170.55;;;;;;;22.43;71.00;100796.38;4943055;28;122922;-77
2022/08/17 02:26:08;;;;;;;665.53;168.40;;;;;;;22.31;70.91;100778.28;4922734;28;122190;-77
2022/08/17 02:28:34;;;;;;;690.60;171.93;;;;;;;22.35;70.79;100790.66;4943139;28;122046;-77
2022/08/17 02:31:05;;;;;;;711.67;172.02;;;;;;;22.31;70.94;100786.66;4942059;28;122813;-77
2022/08/17 02:33:31;;;;;;;705.80;168.63;;;;;;;22.28;71.55;100785.69;4942278;28;122318;-77
2022/08/17 02:35:57;;;;;;;740.25;170.90;;;;;;;22.24;71.27;100785.25;4939964;28;122196;-78
2022/08/17 02:38:23;;;;;;;722.03;167.00;;;;;;;22.22;70.92;100784.25;4937500;28;123278;-77
2022/08/17 02:40:49;;;;;;;705.90;160.95;;;;;;;22.07;71.10;100770.75;4943266;28;122184;-77
2022/08/17 02:43:15;;;;;;;734.53;171.55;;;;;;;22.14;70.69;100781.31;4941904;28;123122;-77
2022/08/17 02:45:40;;;;;;;673.80;161.27;;;;;;;22.10;70.58;100786.44;4937968;28;122319;-77
2022/08/17 02:48:06;;;;;;;682.08;163.10;;;;;;;22.05;70.97;100784.50;4941749;28;122636;-77
2022/08/17 02:50:32;;;;;;;658.38;161.30;;;;;;;22.07;70.96;100798.69;4923343;28;122960;-77
2022/08/17 02:52:57;;;;;;;688.03;161.35;;;;;;;22.05;71.58;100788.03;4946269;28;121934;-77
2022/08/17 02:55:27;;;;;;;673.88;158.48;;;;;;;21.95;70.64;100781.28;4938934;28;121740;-77
2022/08/17 02:57:53;;;;;;;680.15;156.90;;;;;;;21.99;70.97;100790.09;4940885;28;122726;-77
2022/08/17 03:00:28;;;;;;;708.05;164.70;;;;;;;21.95;70.63;100786.84;4943527;28;122289;-77
2022/08/17 03:02:55;;;;;;;676.47;162.52;;;;;;;21.91;70.57;100785.66;4942210;28;122737;-77
2022/08/17 03:05:24;;;;;;;677.97;163.37;;;;;;;21.87;70.58;100796.38;4942240;28;122161;-77
2022/08/17 03:07:50;;;;;;;640.88;158.50;;;;;;;21.82;71.22;100784.00;4943143;28;122318;-77
2022/08/17 03:10:16;;;;;;;673.40;160.90;;;;;;;21.79;70.75;100787.84;4942867;28;122301;-77
2022/08/17 03:12:44;;;;;;;678.13;162.30;;;;;;;21.74;70.70;100783.06;4941599;28;122633;-78
2022/08/17 03:15:12;;;;;;;740.67;168.18;;;;;;;21.72;71.05;100794.00;4924693;28;122421;-77
2022/08/17 03:17:37;;;;;;;661.67;156.98;;;;;;;21.67;71.44;100795.56;4943919;28;121629;-77
2022/08/17 03:20:06;;;;;;;683.40;158.88;;;;;;;21.57;71.48;100779.72;4926708;28;121831;-77
2022/08/17 03:22:39;;;;;;;640.05;153.75;;;;;;;21.67;71.71;100806.00;4941960;28;122073;-77
2022/08/17 03:25:06;;;;;;;685.17;159.50;;;;;;;21.63;71.60;100805.53;4941082;28;123991;-77
2022/08/17 03:27:35;;;;;;;629.93;156.33;;;;;;;21.65;71.64;100808.56;4942076;28;122132;-77
2022/08/17 03:30:33;;;;;;;670.13;160.10;;;;;;;21.59;71.09;100799.50;4940562;28;124453;-77
2022/08/17 03:33:02;;;;;;;645.65;158.05;;;;;;;21.57;70.87;100791.66;4942504;28;122282;-77
2022/08/17 03:35:30;;;;;;;638.88;156.13;;;;;;;21.53;70.63;100798.78;4932419;28;124074;-77
2022/08/17 03:37:57;;;;;;;653.23;155.33;;;;;;;21.51;71.41;100804.13;4946779;28;122902;-77
2022/08/17 03:40:23;;;;;;;609.70;150.90;;;;;;;21.46;70.85;100791.75;4965831;22;128414;-83
2022/08/17 03:42:52;;;;;;;697.85;156.13;;;;;;;21.47;71.61;100804.41;4927575;28;123287;-83
2022/08/17 03:56:42;;;;;;;800.70;166.83;;;;;;;21.32;71.92;100793.69;4914251;28;123369;-83
2022/08/17 03:59:19;;;;;;;644.10;152.90;;;;;;;21.40;71.89;100802.22;4913779;28;123238;-83
2022/08/17 04:01:48;;;;;;;765.83;159.47;;;;;;;21.35;71.70;100792.63;4920381;28;122262;-83
2022/08/17 04:04:14;;;;;;;632.00;152.20;;;;;;;21.37;71.58;100794.91;4898954;28;125058;-83
2022/08/17 04:06:41;;;;;;;607.63;150.73;;;;;;;21.41;72.24;100796.13;4910516;28;121825;-83
2022/08/17 04:09:07;;;;;;;599.95;149.05;;;;;;;21.39;71.91;100798.69;4918000;28;123552;-84
2022/08/17 04:11:34;;;;;;;604.00;154.00;;;;;;;21.41;72.16;100787.00;4910260;28;125232;-83
2022/08/17 04:14:00;;;;;;;654.87;147.93;;;;;;;21.45;72.32;100795.81;4907309;28;122211;-84
2022/08/17 04:16:26;;;;;;;643.37;148.20;;;;;;;21.45;72.51;100793.78;4909286;28;122362;-84
2022/08/17 04:18:52;;;;;;;583.70;142.83;;;;;;;21.52;72.23;100808.44;4894123;28;125606;-83
2022/08/17 04:21:19;;;;;;;554.22;138.32;;;;;;;21.56;72.64;100806.13;4908320;28;121913;-83
2022/08/17 04:23:45;;;;;;;594.10;146.68;;;;;;;21.54;72.35;100798.28;4923984;28;122191;-83
2022/08/17 04:26:13;;;;;;;595.43;140.77;;;;;;;21.56;72.56;100817.28;4884765;28;122724;-83
2022/08/17 04:28:39;;;;;;;568.70;143.88;;;;;;;21.61;71.75;100810.88;4914101;28;123830;-83
2022/08/17 04:31:05;;;;;;;568.67;142.63;;;;;;;21.60;72.52;100801.00;4907431;28;122695;-83
2022/08/17 04:33:31;;;;;;;507.90;136.20;;;;;;;21.75;72.29;100818.81;4899155;28;123174;-82
2022/08/17 04:36:00;;;;;;;629.67;148.77;;;;;;;21.78;72.36;100821.88;4897436;28;124311;-82
2022/08/17 04:38:28;;;;;;;700.95;151.50;;;;;;;21.75;72.74;100824.41;4893501;28;125352;-83
2022/08/17 04:43:42;;;;;;;763.92;156.52;;;;;;;21.76;73.19;100833.53;4921029;28;122396;-82
2022/08/17 04:46:18;;;;;;;818.65;157.45;;;;;;;21.81;73.20;100831.97;4914290;28;122027;-82
2022/08/17 04:48:50;;;;;;;710.42;150.40;;;;;;;21.88;72.50;100832.16;4893761;28;123635;-83
2022/08/17 04:51:18;;;;;;;676.83;148.10;;;;;;;21.93;73.31;100836.91;4897212;28;124484;-83
2022/08/17 04:53:47;;;;;;;641.95;147.13;;;;;;;22.04;73.03;100856.34;4899810;28;124506;-83
2022/08/17 04:56:15;;;;;;;623.63;139.83;;;;;;;22.12;73.05;100850.16;4897963;28;124330;-82
2022/08/17 04:58:42;;;;;;;614.13;146.00;;;;;;;22.19;72.82;100855.91;4901981;28;125620;-82
2022/08/17 05:01:07;;;;;;;618.75;135.02;;;;;;;22.18;72.25;100836.88;4899774;28;122564;-83
2022/08/17 05:03:34;;;;;;;627.58;145.23;;;;;;;22.25;72.50;100842.63;4906117;28;122442;-83
2022/08/17 05:05:59;;;;;;;613.43;139.13;;;;;;;22.30;72.51;100838.25;4912950;28;122342;-82
2022/08/17 05:08:25;;;;;;;620.47;140.23;;;;;;;22.42;72.68;100847.97;4893835;28;125007;-83
2022/08/17 05:10:51;;;;;;;697.97;142.53;;;;;;;22.43;71.96;100846.69;4909548;28;122250;-82
2022/08/17 05:13:20;;;;;;;593.43;141.70;;;;;;;22.48;72.41;100847.94;4888634;28;122105;-82
2022/08/17 05:15:48;;;;;;;585.67;134.27;;;;;;;22.52;72.07;100845.56;4919682;28;122251;-83
2022/08/17 05:18:14;;;;;;;539.30;114.57;;;;;;;22.53;71.85;100847.84;4914639;28;125977;-83
2022/08/17 05:20:40;;;;;;;493.67;117.93;;;;;;;22.61;72.31;100845.19;4908831;28;122996;-83
2022/08/17 05:23:09;;;;;;;574.57;118.90;;;;;;;22.64;72.65;100844.13;4907212;28;122544;-83
2022/08/17 05:25:41;;;;;;;578.35;119.20;;;;;;;22.70;72.71;100849.63;4892776;28;125167;-83
2022/08/17 05:28:07;;;;;;;555.25;117.70;;;;;;;22.69;72.16;100846.06;4912270;28;122017;-83
2022/08/17 05:30:34;;;;;;;530.27;119.07;;;;;;;22.81;72.44;100847.44;4892799;28;124963;-82
2022/08/17 05:33:08;;;;;;;524.37;120.73;;;;;;;22.82;72.93;100831.44;4907432;28;122212;-82
2022/08/17 05:35:36;;;;;;;581.05;124.60;;;;;;;22.90;72.41;100849.84;4890250;28;123363;-82
2022/08/17 05:38:02;;;;;;;457.95;119.47;;;;;;;22.96;72.23;100853.31;4899556;28;124887;-82
2022/08/17 05:40:31;;;;;;;460.33;119.60;;;;;;;22.95;71.66;100839.88;4912583;28;122427;-83
2022/08/17 05:43:18;;;;;;;460.58;119.38;;;;;;;23.10;72.89;100856.16;4923555;28;122407;-83
2022/08/17 05:46:09;;;;;;;442.80;121.80;;;;;;;23.13;72.44;100861.41;4911699;28;123092;-82
2022/08/17 05:48:43;;;;;;;498.88;125.05;;;;;;;23.16;71.93;100863.16;4910783;28;124210;-83
2022/08/17 05:51:37;;;;;;;443.15;119.25;;;;;;;23.22;70.65;100877.06;4906004;28;125366;-83
2022/08/17 05:54:16;;;;;;;470.60;116.07;;;;;;;23.20;70.22;100871.25;4892129;28;122407;-83
2022/08/17 05:57:35;;;;;;;465.73;115.57;;;;;;;23.26;70.86;100875.47;4875582;28;122898;-83
2022/08/17 06:00:13;;;;;;;376.63;111.43;;;;;;;23.30;70.14;100872.34;4910534;28;122454;-83
2022/08/17 06:02:50;;;;;;;421.02;109.18;;;;;;;23.40;71.10;100873.44;4884678;28;122723;-83
2022/08/17 06:05:16;;;;;;;408.30;111.20;;;;;;;23.48;70.15;100879.91;4899661;28;124581;-83
2022/08/17 06:08:06;;;;;;;391.52;111.70;;;;;;;23.55;71.12;100875.72;4906050;28;122365;-83
2022/08/17 06:10:59;;;;;;;399.60;115.10;;;;;;;23.58;71.28;100866.28;4912961;28;124237;-83
2022/08/17 06:13:52;;;;;;;410.90;115.47;;;;;;;23.59;71.29;100862.19;4907933;28;123587;-83
2022/08/17 06:16:24;;;;;;;421.77;119.18;;;;;;;23.71;71.56;100874.69;4922570;28;124186;-83
2022/08/17 06:18:58;;;;;;;436.55;122.68;;;;;;;23.77;71.97;100872.53;4912070;28;122335;-83
2022/08/17 06:21:27;;;;;;;405.67;118.85;;;;;;;23.93;71.82;100881.91;4905311;28;124234;-83
2022/08/17 06:24:04;;;;;;;455.38;124.50;;;;;;;24.04;72.13;100878.13;4910924;28;122378;-83
2022/08/17 06:26:38;;;;;;;419.88;124.15;;;;;;;24.23;72.68;100886.41;4913163;28;124681;-84
2022/08/17 06:29:18;;;;;;;465.38;128.90;;;;;;;24.37;72.08;100885.09;4912138;28;123171;-83
2022/08/17 06:31:44;;;;;;;499.08;132.90;;;;;;;24.52;71.80;100888.09;4904551;28;123158;-83
2022/08/17 06:34:14;;;;;;;481.85;134.40;;;;;;;24.64;71.71;100889.38;4916014;28;122638;-84
2022/08/17 06:37:15;;;;;;;529.92;141.23;;;;;;;24.77;71.58;100874.53;4911452;28;122705;-83
2022/08/17 06:39:49;;;;;;;427.52;126.85;;;;;;;24.92;70.85;100885.91;4911434;28;122339;-83
2022/08/17 06:42:24;;;;;;;479.02;131.38;;;;;;;25.04;70.95;100887.16;4914545;28;124097;-82
2022/08/17 06:45:09;;;;;;;426.13;125.82;;;;;;;25.14;71.05;100892.31;4915778;28;122620;-83
2022/08/17 06:47:51;;;;;;;444.88;122.43;;;;;;;25.20;71.28;100890.13;4923831;28;122609;-84
2022/08/17 06:50:20;;;;;;;411.60;120.60;;;;;;;25.34;70.55;100889.50;4908974;28;122463;-83
2022/08/17 06:52:55;;;;;;;409.45;117.35;;;;;;;25.43;70.11;100893.13;4913153;28;123209;-84
2022/08/17 06:55:32;;;;;;;419.30;123.73;;;;;;;25.49;70.03;100899.34;4916683;28;123427;-82
2022/08/17 06:58:01;;;;;;;449.98;123.10;;;;;;;25.52;69.61;100907.41;4919083;28;124032;-83
2022/08/17 07:00:32;;;;;;;355.65;118.32;;;;;;;25.48;69.42;100895.78;4900995;28;122774;-84
2022/08/17 07:03:24;;;;;;;351.90;113.53;;;;;;;25.54;69.06;100899.19;4898107;28;123622;-84
2022/08/17 07:05:58;;;;;;;327.03;105.37;;;;;;;25.48;68.70;100907.00;4917431;28;122821;-83
2022/08/17 07:08:32;;;;;;;352.63;109.00;;;;;;;25.39;68.86;100902.66;4913435;28;125361;-83
2022/08/17 07:11:13;;;;;;;360.77;112.47;;;;;;;25.35;68.69;100910.66;4901882;28;124041;-81
2022/08/17 07:14:03;;;;;;;426.02;121.43;;;;;;;25.39;69.25;100916.69;4918725;28;122463;-84
2022/08/17 07:16:44;;;;;;;421.43;121.33;;;;;;;25.38;69.38;100915.19;4918187;28;123986;-83
2022/08/17 07:19:09;;;;;;;423.95;119.40;;;;;;;25.38;69.06;100914.44;4904791;28;124311;-83
2022/08/17 07:21:54;;;;;;;445.70;120.82;;;;;;;25.35;69.97;100912.72;4921799;28;122517;-83
2022/08/17 07:24:42;;;;;;;393.80;114.78;;;;;;;25.43;70.40;100921.19;4920380;28;123560;-83
2022/08/17 07:27:07;;;;;;;364.40;113.70;;;;;;;25.50;69.79;100921.25;4907506;28;122779;-82
2022/08/17 07:29:52;;;;;;;321.43;104.57;;;;;;;25.56;69.74;100919.06;4913392;28;124645;-83
2022/08/17 07:32:24;;;;;;;291.83;97.20;;;;;;;25.72;69.21;100908.72;4918368;28;122759;-83
2022/08/17 07:35:21;;;;;;;335.55;106.65;;;;;;;25.81;69.60;100904.66;4903065;28;122627;-84
2022/08/17 07:38:05;;;;;;;227.10;90.00;;;;;;;25.95;69.02;100912.44;4900287;28;124619;-83
2022/08/17 07:40:45;;;;;;;303.50;98.53;;;;;;;26.03;68.79;100915.28;4907692;28;122982;-83
2022/08/17 07:43:31;;;;;;;341.58;103.00;;;;;;;26.19;69.51;100916.88;4917956;28;122799;-84
2022/08/17 07:48:53;;;;;;;198.47;76.77;;;;;;;26.36;67.51;100932.53;4909241;28;124966;-83
2022/08/17 07:51:32;;;;;;;178.73;72.85;;;;;;;26.41;67.34;100934.44;4916474;28;122518;-84
2022/08/17 07:54:21;;;;;;;190.33;74.67;;;;;;;26.50;67.78;100931.84;4888946;28;124458;-83
2022/08/17 07:57:24;;;;;;;132.70;63.30;;;;;;;26.61;66.15;100927.94;4917163;28;122294;-83
2022/08/17 07:59:59;;;;;;;142.90;65.18;;;;;;;26.65;66.35;100928.34;4913313;28;123352;-82
2022/08/17 08:02:33;;;;;;;122.40;61.92;;;;;;;26.68;65.72;100932.09;4919287;28;123041;-83
2022/08/17 08:05:22;;;;;;;134.63;62.33;;;;;;;26.69;65.63;100928.72;4920617;28;122670;-82
2022/08/17 08:07:53;;;;;;;121.72;62.17;;;;;;;26.77;66.52;100940.75;4894683;28;123276;-83
2022/08/17 08:10:26;;;;;;;107.00;57.63;;;;;;;26.91;66.30;100932.91;4905200;28;122694;-83
2022/08/17 08:13:10;;;;;;;95.73;54.13;;;;;;;27.03;65.29;100928.47;4899700;28;122560;-83
2022/08/17 08:15:41;;;;;;;78.78;49.33;;;;;;;27.12;65.13;100930.72;4890863;28;124124;-83
2022/08/17 08:18:35;;;;;;;74.03;48.58;;;;;;;27.19;64.49;100938.41;4894603;28;122815;-82
2022/08/17 08:21:10;;;;;;;99.65;53.60;;;;;;;27.19;64.10;100946.13;4899837;28;122828;-83
2022/08/17 08:23:36;;;;;;;102.93;53.08;;;;;;;27.20;65.22;100936.34;4914218;28;123050;-82
2022/08/17 08:26:13;;;;;;;78.10;49.67;;;;;;;27.33;65.49;100943.88;4908856;28;122811;-83
2022/08/17 08:29:17;;;;;;;89.32;50.10;;;;;;;27.55;65.45;100942.38;4931488;28;122441;-83
2022/08/17 08:32:08;;;;;;;47.60;37.23;;;;;;;27.67;63.00;100937.88;4895150;28;124625;-83
2022/08/17 08:34:59;;;;;;;51.80;38.40;;;;;;;27.67;63.07;100938.63;4904804;28;122949;-82
2022/08/17 08:38:14;;;;;;;54.10;39.23;;;;;;;27.68;63.96;100943.00;4906833;28;123294;-83
2022/08/17 08:40:39;;;;;;;55.15;38.85;;;;;;;27.71;62.63;100949.56;4908009;28;122118;-83
2022/08/17 08:43:33;;;;;;;51.33;39.03;;;;;;;27.75;63.36;100949.94;4909197;28;123015;-83
2022/08/17 08:46:20;;;;;;;52.40;37.40;;;;;;;27.84;63.51;100946.53;4890552;28;125248;-83
2022/08/17 08:49:10;;;;;;;36.10;30.75;;;;;;;27.96;63.38;100947.66;4898964;28;122749;-83
2022/08/17 08:51:51;;;;;;;32.20;28.67;;;;;;;28.09;62.87;100950.22;4920692;28;124166;-83
2022/08/17 08:54:52;;;;;;;33.85;30.25;;;;;;;28.08;60.26;100954.38;4918279;28;123908;-83
2022/08/17 08:57:18;;;;;;;36.60;32.22;;;;;;;27.98;61.38;100961.91;4918512;28;124654;-83
2022/08/17 09:00:16;;;;;;;34.88;30.45;;;;;;;27.97;60.60;100960.41;4904792;28;122305;-83
2022/08/17 09:03:19;;;;;;;29.20;26.10;;;;;;;27.95;60.70;100957.41;4908863;28;122022;-83
2022/08/17 09:06:14;;;;;;;31.00;27.77;;;;;;;27.97;61.10;100960.41;4909183;28;122508;-83
2022/08/17 09:09:18;;;;;;;28.45;25.38;;;;;;;28.03;61.49;100958.16;4902932;28;122539;-83
2022/08/17 09:12:01;;;;;;;25.20;22.60;;;;;;;28.10;61.26;100953.78;4910167;28;122447;-84
2022/08/17 09:14:47;;;;;;;27.80;24.95;;;;;;;28.09;60.62;100950.22;4909095;28;124730;-83
2022/08/17 09:17:28;;;;;;;27.75;24.80;;;;;;;28.16;60.29;100965.66;4907530;28;123866;-83
2022/08/17 09:20:10;;;;;;;24.70;22.05;;;;;;;28.13;59.72;100967.50;4892508;28;122664;-83
2022/08/17 09:22:43;;;;;;;27.20;24.27;;;;;;;28.09;60.14;100967.16;4908457;28;122360;-83
2022/08/17 09:25:20;;;;;;;24.92;22.27;;;;;;;28.05;59.67;100966.03;4911718;28;125728;-83
2022/08/17 09:28:13;;;;;;;23.63;21.05;;;;;;;28.07;60.90;100964.16;4896170;28;122986;-83
2022/08/17 09:30:44;;;;;;;25.90;23.13;;;;;;;28.04;60.59;100961.72;4890569;28;124179;-83
2022/08/17 09:33:15;;;;;;;28.58;25.77;;;;;;;28.04;60.42;100962.47;4900280;28;122812;-83
2022/08/17 09:35:45;;;;;;;27.30;24.60;;;;;;;28.08;61.36;100948.72;4908164;28;123548;-84
2022/08/17 09:38:24;;;;;;;29.20;26.20;;;;;;;28.20;61.62;100957.53;4900548;28;126018;-83
2022/08/17 09:40:55;;;;;;;30.92;27.58;;;;;;;28.22;60.31;100962.63;4902077;28;122640;-83
2022/08/17 09:43:27;;;;;;;29.00;25.90;;;;;;;28.25;60.94;100961.50;4924325;28;124216;-83
2022/08/17 09:46:16;;;;;;;29.35;26.33;;;;;;;28.32;61.62;100966.38;4894505;28;124921;-82
2022/08/17 09:49:02;;;;;;;29.20;26.10;;;;;;;28.30;59.27;100969.00;4907323;28;122386;-83
2022/08/17 09:51:33;;;;;;;28.63;25.67;;;;;;;28.35;61.93;100968.03;4894477;28;124048;-83
2022/08/17 09:53:59;;;;;;;22.67;20.30;;;;;;;28.41;59.98;100968.59;4904313;28;124372;-84
2022/08/17 09:57:02;;;;;;;19.98;17.92;;;;;;;28.46;57.45;100973.28;4898744;28;124209;-83
2022/08/17 09:59:54;;;;;;;21.00;18.80;;;;;;;28.37;57.29;100960.50;4902082;28;124521;-84
2022/08/17 10:02:25;;;;;;;23.45;21.13;;;;;;;28.39;58.47;100969.19;4907942;28;122302;-83
2022/08/17 10:05:31;;;;;;;20.83;18.75;;;;;;;28.45;58.65;100965.41;4901790;28;123057;-83
2022/08/17 10:08:08;;;;;;;22.65;20.40;;;;;;;28.62;60.88;100966.25;4925912;28;122547;-83
2022/08/17 10:11:04;;;;;;;24.98;22.42;;;;;;;28.75;59.28;100979.38;4921366;28;123302;-82
2022/08/17 10:13:38;;;;;;;22.55;20.15;;;;;;;28.82;58.39;100964.47;4921769;28;123445;-83
2022/08/17 10:16:10;;;;;;;24.88;22.20;;;;;;;28.87;56.58;100968.44;4894907;28;122404;-83
2022/08/17 10:18:52;;;;;;;23.27;21.00;;;;;;;28.90;58.70;100972.94;4914858;28;125423;-83
2022/08/17 10:26:53;;;;;;;21.75;19.65;;;;;;;28.84;56.46;100966.72;4908975;28;122354;-83
2022/08/17 10:29:30;;;;;;;22.37;20.10;;;;;;;28.86;57.96;100972.56;4910112;28;123532;-83
2022/08/17 10:32:08;;;;;;;21.80;19.60;;;;;;;28.87;58.55;100955.06;4908976;28;122434;-83
2022/08/17 10:34:55;;;;;;;25.65;22.92;;;;;;;28.93;57.38;100966.13;4905500;28;122732;-83
2022/08/17 10:38:06;;;;;;;24.95;22.35;;;;;;;28.85;58.46;100966.16;4913785;28;122852;-83
2022/08/17 10:40:42;;;;;;;26.20;23.65;;;;;;;28.86;57.49;100967.66;4904693;28;122858;-83
2022/08/17 10:43:35;;;;;;;27.00;24.30;;;;;;;28.87;57.50;100969.19;4909249;28;125464;-84
2022/08/17 10:46:16;;;;;;;22.92;20.63;;;;;;;28.89;58.17;100962.97;4885716;28;122326;-83
2022/08/17 10:48:42;;;;;;;21.30;19.30;;;;;;;28.96;57.24;100962.91;4912332;28;125778;-82
2022/08/17 10:51:11;;;;;;;21.93;17.90;;;;;;;28.89;56.29;100948.84;4914522;28;123298;-83
2022/08/17 10:53:48;;;;;;;20.83;18.70;;;;;;;28.89;56.47;100960.13;4912227;28;122359;-84
2022/08/17 10:56:14;;;;;;;21.27;19.17;;;;;;;28.82;55.77;100960.88;4913616;28;122525;-83
2022/08/17 10:58:54;;;;;;;20.13;18.23;;;;;;;28.78;57.28;100952.06;4910133;28;122828;-84
2022/08/17 11:01:31;;;;;;;15.63;13.80;;;;;;;28.90;56.93;100967.28;4919067;28;122628;-82
2022/08/17 11:04:20;;;;;;;16.63;14.93;;;;;;;29.01;55.40;100956.28;4919219;28;125372;-82
2022/08/17 11:07:01;;;;;;;17.75;15.88;;;;;;;29.10;55.22;100952.06;4923626;28;122645;-83
2022/08/17 11:09:33;;;;;;;15.83;14.20;;;;;;;29.16;56.12;100955.44;4913709;28;124346;-83
2022/08/17 11:12:05;;;;;;;17.23;15.32;;;;;;;29.24;54.23;100953.31;4909861;28;123466;-82
2022/08/17 11:14:40;;;;;;;16.17;14.60;;;;;;;29.30;55.72;100953.81;4902463;28;122365;-84
2022/08/17 11:17:38;;;;;;;17.27;15.38;;;;;;;29.36;55.30;100956.44;4903970;28;123464;-83
2022/08/17 11:20:13;;;;;;;16.45;14.85;;;;;;;29.31;53.25;100958.16;4896977;28;124369;-83
2022/08/17 11:23:18;;;;;;;17.02;15.38;;;;;;;29.22;54.54;100947.50;4913685;28;122915;-82
2022/08/17 11:25:51;;;;;;;16.87;15.10;;;;;;;29.28;53.70;100950.81;4909990;28;124255;-82
2022/08/17 11:28:33;;;;;;;20.50;17.77;;;;;;;29.22;53.02;100941.09;4897979;28;123131;-83
2022/08/17 11:31:07;;;;;;;18.97;17.07;;;;;;;29.30;52.32;100942.53;4921883;28;122353;-83
2022/08/17 11:33:35;;;;;;;17.10;15.32;;;;;;;29.30;53.27;100944.59;4919762;28;122791;-83
2022/08/17 11:36:13;;;;;;;18.60;16.80;;;;;;;29.31;52.76;100940.44;4920772;28;122628;-82
2022/08/17 11:38:56;;;;;;;19.80;17.70;;;;;;;29.32;52.06;100944.78;4914355;28;123390;-83
2022/08/17 11:41:34;;;;;;;16.45;14.88;;;;;;;29.39;53.85;100946.06;4919152;28;122623;-83
2022/08/17 11:44:36;;;;;;;16.88;14.82;;;;;;;29.51;53.72;100944.28;4919593;28;122823;-82
2022/08/17 11:53:38;;;;;;;18.02;16.20;;;;;;;29.46;53.97;100942.44;4918902;28;123126;-82